createdAt,value
2022-08-26T00:01:12.083Z,99.46
2022-08-26T00:03:41.183Z,99.32
2022-08-26T00:06:10.647Z,99.14
2022-08-26T00:08:43.399Z,99.29
2022-08-26T00:11:15.755Z,99.30
2022-08-26T00:13:56.891Z,99.21
2022-08-26T00:16:28.236Z,99.62
2022-08-26T00:18:57.345Z,99.42
2022-08-26T00:21:26.744Z,99.74
2022-08-26T00:23:55.990Z,100.00
2022-08-26T00:26:28.426Z,100.00
2022-08-26T00:28:58.664Z,100.00
2022-08-26T00:31:27.345Z,100.00
2022-08-26T00:33:55.997Z,100.00
2022-08-26T00:36:24.629Z,100.00
2022-08-26T00:38:59.419Z,100.00
2022-08-26T00:41:28.893Z,100.00
2022-08-26T00:43:57.659Z,100.00
2022-08-26T00:46:31.800Z,100.00
2022-08-26T00:49:39.019Z,100.00
2022-08-26T00:52:16.806Z,100.00
2022-08-26T00:55:22.406Z,100.00
2022-08-26T00:57:53.098Z,100.00
2022-08-26T01:00:28.370Z,100.00
2022-08-26T01:03:00.495Z,100.00
2022-08-26T01:05:30.286Z,100.00
2022-08-26T01:07:59.323Z,100.00
2022-08-26T01:10:31.436Z,100.00
2022-08-26T01:13:10.161Z,100.00
2022-08-26T01:15:51.416Z,100.00
2022-08-26T01:18:20.874Z,100.00
2022-08-26T01:21:25.266Z,100.00
2022-08-26T01:23:57.516Z,100.00
2022-08-26T01:26:36.489Z,100.00
2022-08-26T01:29:08.497Z,100.00
2022-08-26T01:31:44.536Z,100.00
2022-08-26T01:34:19.664Z,100.00
2022-08-26T01:36:52.024Z,100.00
2022-08-26T01:39:21.374Z,100.00
2022-08-26T01:41:56.944Z,100.00
2022-08-26T01:44:33.192Z,100.00
2022-08-26T01:47:03.173Z,100.00
2022-08-26T01:49:37.081Z,100.00
2022-08-26T01:52:08.650Z,100.00
2022-08-26T01:54:39.614Z,100.00
2022-08-26T01:57:08.813Z,100.00
2022-08-26T01:59:39.388Z,100.00
2022-08-26T02:02:08.240Z,100.00
2022-08-26T02:04:49.929Z,100.00
2022-08-26T02:07:21.729Z,100.00
2022-08-26T02:09:50.412Z,100.00
2022-08-26T02:12:21.216Z,100.00
2022-08-26T02:14:56.548Z,100.00
2022-08-26T02:17:41.303Z,100.00
2022-08-26T02:20:15.318Z,100.00
2022-08-26T02:22:45.602Z,100.00
2022-08-26T02:25:46.746Z,100.00
2022-08-26T02:28:17.798Z,100.00
2022-08-26T02:30:49.110Z,100.00
2022-08-26T02:33:19.461Z,100.00
2022-08-26T02:35:48.263Z,100.00
2022-08-26T02:38:16.928Z,100.00
2022-08-26T02:40:46.418Z,100.00
2022-08-26T02:43:17.146Z,100.00
2022-08-26T02:45:46.342Z,100.00
2022-08-26T02:48:21.389Z,100.00
2022-08-26T02:50:50.310Z,100.00
2022-08-26T02:53:25.068Z,100.00
2022-08-26T02:55:54.221Z,100.00
2022-08-26T02:58:23.481Z,100.00
2022-08-26T03:00:53.789Z,100.00
2022-08-26T03:03:23.683Z,100.00
2022-08-26T03:05:53.839Z,100.00
2022-08-26T03:08:23.132Z,100.00
2022-08-26T03:10:51.908Z,100.00
2022-08-26T03:13:20.574Z,100.00
2022-08-26T03:15:49.270Z,100.00
2022-08-26T03:18:18.216Z,100.00
2022-08-26T03:20:49.184Z,100.00
2022-08-26T03:23:18.729Z,100.00
2022-08-26T03:25:52.238Z,100.00
2022-08-26T03:28:21.104Z,100.00
2022-08-26T03:30:49.728Z,100.00
2022-08-26T03:33:19.571Z,100.00
2022-08-26T03:35:50.471Z,100.00
2022-08-26T03:38:25.207Z,100.00
2022-08-26T03:40:53.904Z,100.00
2022-08-26T03:43:26.830Z,100.00
2022-08-26T03:45:55.474Z,100.00
2022-08-26T03:48:24.167Z,100.00
2022-08-26T03:50:53.394Z,100.00
2022-08-26T03:53:21.992Z,100.00
2022-08-26T03:55:51.883Z,100.00
2022-08-26T03:58:24.505Z,100.00
2022-08-26T04:00:55.381Z,100.00
2022-08-26T04:03:45.014Z,100.00
2022-08-26T04:06:13.411Z,100.00
2022-08-26T04:08:42.726Z,100.00
2022-08-26T04:11:22.930Z,100.00
2022-08-26T04:13:52.363Z,100.00
2022-08-26T04:16:21.965Z,100.00
2022-08-26T04:18:51.472Z,100.00
2022-08-26T04:21:20.399Z,100.00
2022-08-26T04:23:50.462Z,100.00
2022-08-26T04:26:22.158Z,100.00
2022-08-26T04:28:55.886Z,100.00
2022-08-26T04:31:26.454Z,100.00
2022-08-26T04:33:59.784Z,100.00
2022-08-26T04:36:29.192Z,100.00
2022-08-26T04:39:01.131Z,100.00
2022-08-26T04:41:31.768Z,100.00
2022-08-26T04:44:01.904Z,100.00
2022-08-26T04:46:30.545Z,100.00
2022-08-26T04:49:00.296Z,100.00
2022-08-26T04:51:28.998Z,100.00
2022-08-26T04:53:59.970Z,100.00
2022-08-26T04:56:37.099Z,100.00
2022-08-26T04:59:16.706Z,97.22
2022-08-26T05:01:51.410Z,96.24
2022-08-26T05:04:22.233Z,98.72
2022-08-26T05:06:52.183Z,98.38
2022-08-26T05:09:21.540Z,92.75
2022-08-26T05:11:52.342Z,89.87
2022-08-26T05:14:23.455Z,94.20
2022-08-26T05:16:52.835Z,92.87
2022-08-26T05:19:25.313Z,92.64
2022-08-26T05:21:56.499Z,91.65
2022-08-26T05:24:25.999Z,92.93
2022-08-26T05:26:56.453Z,87.25
2022-08-26T05:29:25.407Z,88.66
2022-08-26T05:31:54.173Z,88.94
2022-08-26T05:34:25.784Z,82.90
2022-08-26T05:36:59.362Z,76.55
2022-08-26T05:39:27.986Z,79.53
2022-08-26T05:41:57.170Z,83.97
2022-08-26T05:44:25.947Z,84.29
2022-08-26T05:46:54.656Z,82.68
2022-08-26T05:49:26.351Z,83.52
2022-08-26T05:51:55.304Z,82.24
2022-08-26T05:54:24.168Z,79.80
2022-08-26T05:56:52.967Z,78.59
2022-08-26T05:59:24.646Z,77.85
2022-08-26T06:01:57.419Z,78.92
2022-08-26T06:04:27.553Z,78.61
2022-08-26T06:06:59.161Z,72.71
2022-08-26T06:09:27.939Z,71.01
2022-08-26T06:11:58.924Z,68.44
2022-08-26T06:14:27.660Z,67.50
2022-08-26T06:16:57.699Z,67.10
2022-08-26T06:19:26.399Z,66.75
2022-08-26T06:22:23.281Z,68.55
2022-08-26T06:25:10.742Z,65.44
2022-08-26T06:27:39.606Z,67.61
2022-08-26T06:30:10.068Z,61.50
2022-08-26T06:32:38.982Z,59.30
2022-08-26T06:35:12.189Z,58.14
2022-08-26T06:37:41.258Z,57.33
2022-08-26T06:40:11.486Z,51.09
2022-08-26T06:42:40.741Z,50.47
2022-08-26T06:45:09.932Z,49.59
2022-08-26T06:47:39.738Z,50.29
2022-08-26T06:50:08.825Z,48.84
2022-08-26T06:52:37.790Z,40.94
2022-08-26T06:55:07.117Z,38.51
2022-08-26T06:57:39.692Z,36.40
2022-08-26T07:00:11.591Z,35.49
2022-08-26T07:02:41.259Z,35.42
2022-08-26T07:05:15.556Z,38.89
2022-08-26T07:07:44.139Z,45.99
2022-08-26T07:10:12.660Z,49.21
2022-08-26T07:12:41.179Z,49.69
2022-08-26T07:15:10.626Z,49.63
2022-08-26T07:17:39.548Z,50.99
2022-08-26T07:20:11.663Z,50.83
2022-08-26T07:22:40.228Z,50.18
2022-08-26T07:25:11.549Z,37.02
2022-08-26T07:27:40.234Z,32.94
2022-08-26T07:30:09.941Z,32.24
2022-08-26T07:32:43.608Z,32.80
2022-08-26T07:35:12.107Z,42.06
2022-08-26T07:37:40.760Z,44.07
2022-08-26T07:40:10.442Z,45.46
2022-08-26T07:42:40.167Z,43.79
2022-08-26T07:45:09.412Z,43.78
2022-08-26T07:47:38.111Z,44.36
2022-08-26T07:50:07.395Z,43.85
2022-08-26T07:52:38.366Z,44.62
2022-08-26T07:55:10.773Z,42.68
2022-08-26T07:57:39.959Z,43.12
2022-08-26T08:00:16.205Z,42.95
2022-08-26T08:02:45.279Z,41.99
2022-08-26T08:05:19.709Z,41.76
2022-08-26T08:07:53.634Z,41.68
2022-08-26T08:10:39.363Z,42.07
2022-08-26T08:13:08.685Z,40.80
2022-08-26T08:15:39.328Z,40.16
2022-08-26T08:18:15.397Z,40.55
2022-08-26T08:20:47.720Z,40.97
2022-08-26T08:23:33.721Z,39.65
2022-08-26T08:26:07.491Z,38.65
2022-08-26T08:28:39.024Z,38.39
2022-08-26T08:31:10.471Z,38.50
2022-08-26T08:33:38.951Z,37.37
2022-08-26T08:36:09.252Z,36.99
2022-08-26T08:38:37.912Z,36.67
2022-08-26T08:41:06.693Z,37.34
2022-08-26T08:43:46.563Z,36.48
2022-08-26T08:46:19.555Z,36.16
2022-08-26T08:48:57.013Z,36.59
2022-08-26T08:51:59.240Z,35.25
2022-08-26T08:54:29.243Z,34.77
2022-08-26T08:57:38.797Z,35.78
2022-08-26T09:00:18.237Z,34.90
2022-08-26T09:03:04.751Z,34.38
2022-08-26T09:05:48.509Z,34.49
2022-08-26T09:08:27.618Z,34.22
2022-08-26T09:11:00.562Z,35.17
2022-08-26T09:13:31.835Z,34.18
2022-08-26T09:16:25.606Z,33.49
2022-08-26T09:19:54.728Z,34.05
2022-08-26T09:22:36.059Z,33.54
2022-08-26T09:25:12.941Z,33.34
2022-08-26T09:27:50.758Z,33.49
2022-08-26T09:30:30.077Z,32.91
2022-08-26T09:33:11.417Z,33.13
2022-08-26T09:35:47.115Z,32.38
2022-08-26T09:38:27.881Z,32.21
2022-08-26T09:41:27.094Z,31.82
2022-08-26T09:44:19.292Z,32.15
2022-08-26T09:47:05.529Z,32.67
2022-08-26T09:49:38.702Z,32.68
2022-08-26T09:52:24.701Z,32.25
2022-08-26T09:55:24.106Z,30.77
2022-08-26T09:57:55.591Z,32.89
2022-08-26T10:00:54.203Z,32.82
2022-08-26T10:03:36.633Z,31.97
2022-08-26T10:06:17.764Z,31.79
2022-08-26T10:08:59.265Z,32.66
2022-08-26T10:11:49.013Z,31.66
2022-08-26T10:14:30.171Z,31.52
2022-08-26T10:17:55.413Z,31.59
2022-08-26T10:20:36.847Z,33.24
2022-08-26T10:23:18.203Z,30.62
2022-08-26T10:26:00.594Z,31.15
2022-08-26T10:28:44.453Z,32.59
2022-08-26T10:32:02.492Z,31.50
2022-08-26T10:34:35.067Z,29.86
2022-08-26T10:37:20.629Z,30.29
2022-08-26T10:40:07.704Z,30.72
2022-08-26T10:42:47.049Z,30.58
2022-08-26T10:45:28.628Z,30.89
2022-08-26T10:48:11.424Z,30.64
2022-08-26T10:50:47.398Z,31.74
2022-08-26T10:53:46.843Z,30.13
2022-08-26T10:57:16.180Z,30.19
2022-08-26T10:59:52.327Z,29.79
2022-08-26T11:02:46.962Z,30.36
2022-08-26T11:05:23.778Z,28.90
2022-08-26T11:07:57.095Z,29.14
2022-08-26T11:10:25.520Z,30.18
2022-08-26T11:13:03.674Z,31.20
2022-08-26T11:15:32.770Z,29.59
2022-08-26T11:18:36.911Z,29.74
2022-08-26T11:21:52.158Z,29.45
2022-08-26T11:24:57.180Z,29.11
2022-08-26T11:27:37.452Z,28.59
2022-08-26T11:30:37.042Z,29.32
2022-08-26T11:33:07.184Z,29.43
2022-08-26T11:35:38.933Z,27.81
2022-08-26T11:38:29.197Z,28.37
2022-08-26T11:41:17.946Z,27.96
2022-08-26T11:43:49.523Z,28.35
2022-08-26T11:46:28.419Z,28.49
2022-08-26T11:49:07.272Z,28.37
2022-08-26T11:51:40.174Z,28.19
2022-08-26T11:54:26.948Z,27.17
2022-08-26T11:57:09.496Z,27.93
2022-08-26T11:59:43.546Z,27.36
2022-08-26T12:02:17.842Z,27.59
2022-08-26T12:04:51.324Z,27.13
2022-08-26T12:07:28.508Z,28.11
2022-08-26T12:10:02.474Z,28.13
2022-08-26T12:12:42.595Z,26.87
2022-08-26T12:15:24.256Z,27.39
2022-08-26T12:17:54.598Z,27.46
2022-08-26T12:20:48.697Z,27.76
2022-08-26T12:23:37.345Z,27.61
2022-08-26T12:26:34.050Z,28.49
2022-08-26T12:29:31.659Z,27.65
2022-08-26T12:32:15.777Z,28.21
2022-08-26T12:34:49.099Z,28.73
2022-08-26T12:37:19.005Z,28.21
2022-08-26T12:39:49.288Z,28.37
2022-08-26T12:42:21.935Z,27.97
2022-08-26T12:45:06.651Z,27.61
2022-08-26T12:47:44.457Z,27.43
2022-08-26T12:50:25.941Z,27.68
2022-08-26T12:53:10.623Z,27.93
2022-08-26T12:55:48.752Z,27.31
2022-08-26T12:58:36.746Z,27.74
2022-08-26T13:01:05.353Z,27.01
2022-08-26T13:03:43.403Z,27.94
2022-08-26T13:06:23.837Z,26.99
2022-08-26T13:08:56.002Z,27.95
2022-08-26T13:11:41.185Z,28.20
2022-08-26T13:14:23.851Z,27.03
2022-08-26T13:16:53.881Z,26.96
2022-08-26T13:19:25.818Z,27.31
2022-08-26T13:21:58.026Z,28.44
2022-08-26T13:24:38.671Z,26.63
2022-08-26T13:27:11.884Z,27.51
2022-08-26T13:29:41.574Z,27.17
2022-08-26T13:32:11.035Z,27.16
2022-08-26T13:34:40.055Z,26.20
2022-08-26T13:37:08.544Z,26.62
2022-08-26T13:39:38.228Z,27.63
2022-08-26T13:42:06.851Z,27.15
2022-08-26T13:44:36.374Z,27.00
2022-08-26T13:47:06.074Z,27.13
2022-08-26T13:49:34.448Z,26.68
2022-08-26T13:52:03.782Z,27.30
2022-08-26T13:54:32.247Z,26.99
2022-08-26T13:57:00.719Z,27.32
2022-08-26T13:59:29.342Z,27.81
2022-08-26T14:01:58.898Z,28.69
2022-08-26T14:04:27.668Z,28.15
2022-08-26T14:06:57.037Z,28.69
2022-08-26T14:09:25.610Z,29.15
2022-08-26T14:11:55.044Z,27.99
2022-08-26T14:14:25.159Z,29.13
2022-08-26T14:16:59.817Z,28.85
2022-08-26T14:19:30.857Z,28.74
2022-08-26T14:22:01.542Z,28.89
2022-08-26T14:24:30.651Z,28.99
2022-08-26T14:26:59.583Z,29.24
2022-08-26T14:29:28.454Z,28.36
2022-08-26T14:31:59.804Z,29.07
2022-08-26T14:34:28.398Z,28.15
2022-08-26T14:36:56.796Z,28.62
2022-08-26T14:39:25.263Z,29.60
2022-08-26T14:41:57.184Z,29.59
2022-08-26T14:44:32.719Z,28.48
2022-08-26T14:47:05.015Z,28.92
2022-08-26T14:49:33.664Z,30.29
2022-08-26T14:52:03.224Z,29.99
2022-08-26T14:54:31.718Z,28.67
2022-08-26T14:57:05.592Z,28.98
2022-08-26T14:59:39.694Z,29.02
2022-08-26T15:02:13.657Z,28.62
2022-08-26T15:04:50.740Z,29.37
2022-08-26T15:07:19.240Z,28.90
2022-08-26T15:09:48.019Z,29.03
2022-08-26T15:12:16.422Z,29.43
2022-08-26T15:14:44.814Z,28.96
2022-08-26T15:17:13.267Z,28.86
2022-08-26T15:19:41.740Z,29.13
2022-08-26T15:22:10.503Z,29.30
2022-08-26T15:24:39.025Z,30.73
2022-08-26T15:27:08.529Z,30.19
2022-08-26T15:29:39.762Z,29.22
2022-08-26T15:32:08.460Z,29.93
2022-08-26T15:34:37.027Z,30.12
2022-08-26T15:37:06.559Z,29.03
2022-08-26T15:39:36.790Z,29.92
2022-08-26T15:42:05.801Z,28.72
2022-08-26T15:44:34.335Z,30.06
2022-08-26T15:47:02.913Z,29.43
2022-08-26T15:49:31.399Z,29.11
2022-08-26T15:51:59.800Z,30.60
2022-08-26T15:54:28.191Z,29.77
2022-08-26T15:56:57.250Z,30.15
2022-08-26T15:59:25.979Z,30.42
2022-08-26T16:01:59.250Z,29.46
2022-08-26T16:04:27.991Z,29.39
2022-08-26T16:06:56.434Z,30.83
2022-08-26T16:09:27.290Z,31.38
2022-08-26T16:11:57.158Z,31.60
2022-08-26T16:14:27.383Z,31.53
2022-08-26T16:16:58.609Z,31.06
2022-08-26T16:19:27.571Z,30.92
2022-08-26T16:21:55.992Z,32.12
2022-08-26T16:24:30.088Z,33.17
2022-08-26T16:26:59.055Z,32.98
2022-08-26T16:29:28.113Z,33.58
2022-08-26T16:31:57.321Z,34.45
2022-08-26T16:34:26.101Z,34.83
2022-08-26T16:36:56.035Z,35.48
2022-08-26T16:39:27.401Z,34.64
2022-08-26T16:41:55.946Z,35.34
2022-08-26T16:44:24.683Z,35.77
2022-08-26T16:46:59.170Z,37.13
2022-08-26T16:49:27.731Z,37.89
2022-08-26T16:51:57.261Z,38.07
2022-08-26T16:54:26.690Z,38.84
2022-08-26T16:56:55.203Z,38.43
2022-08-26T16:59:24.222Z,39.44
2022-08-26T17:01:53.046Z,38.06
2022-08-26T17:04:22.120Z,38.60
2022-08-26T17:06:51.328Z,38.41
2022-08-26T17:09:20.303Z,38.95
2022-08-26T17:11:49.036Z,39.43
2022-08-26T17:14:17.753Z,38.95
2022-08-26T17:16:47.086Z,39.12
2022-08-26T17:19:17.817Z,39.07
2022-08-26T17:21:47.302Z,40.43
2022-08-26T17:24:15.739Z,40.19
2022-08-26T17:26:53.454Z,41.46
2022-08-26T17:29:24.075Z,40.64
2022-08-26T17:31:52.639Z,41.46
2022-08-26T17:34:22.836Z,42.31
2022-08-26T17:36:51.748Z,42.63
2022-08-26T17:39:20.526Z,43.16
2022-08-26T17:41:49.127Z,43.33
2022-08-26T17:44:17.615Z,43.95
2022-08-26T17:46:46.111Z,44.25
2022-08-26T17:49:14.544Z,45.12
2022-08-26T17:51:43.044Z,45.74
2022-08-26T17:54:11.692Z,45.70
2022-08-26T17:56:40.245Z,46.63
2022-08-26T17:59:09.946Z,46.57
2022-08-26T18:01:39.867Z,47.99
2022-08-26T18:04:08.522Z,47.54
2022-08-26T18:06:38.365Z,48.43
2022-08-26T18:09:07.123Z,49.71
2022-08-26T18:11:35.877Z,50.00
2022-08-26T18:14:04.633Z,49.83
2022-08-26T18:16:38.341Z,51.33
2022-08-26T18:19:07.991Z,50.94
2022-08-26T18:21:37.006Z,51.81
2022-08-26T18:24:07.562Z,51.19
2022-08-26T18:26:41.612Z,51.41
2022-08-26T18:29:11.308Z,51.21
2022-08-26T18:31:40.069Z,52.89
2022-08-26T18:34:12.954Z,52.08
2022-08-26T18:36:41.794Z,53.31
2022-08-26T18:39:12.486Z,55.42
2022-08-26T18:41:47.915Z,54.50
2022-08-26T18:44:20.301Z,55.06
2022-08-26T18:46:50.251Z,57.92
2022-08-26T18:49:21.555Z,56.51
2022-08-26T18:51:53.040Z,58.02
2022-08-26T18:54:22.253Z,55.99
2022-08-26T18:56:50.973Z,58.33
2022-08-26T18:59:19.743Z,59.32
2022-08-26T19:01:55.549Z,59.50
2022-08-26T19:04:24.255Z,62.09
2022-08-26T19:06:53.482Z,62.82
2022-08-26T19:09:22.131Z,62.99
2022-08-26T19:11:51.506Z,62.85
2022-08-26T19:14:20.893Z,63.46
2022-08-26T19:16:52.554Z,62.91
2022-08-26T19:19:25.751Z,62.59
2022-08-26T19:21:55.194Z,64.08
2022-08-26T19:24:27.439Z,62.89
2022-08-26T19:27:01.296Z,62.51
2022-08-26T19:29:35.888Z,61.25
2022-08-26T19:32:05.509Z,62.76
2022-08-26T19:34:34.290Z,61.38
2022-08-26T19:37:02.884Z,61.80
2022-08-26T19:39:31.581Z,61.86
2022-08-26T19:42:00.648Z,61.92
2022-08-26T19:44:47.832Z,62.33
2022-08-26T19:47:16.342Z,64.69
2022-08-26T19:49:45.862Z,65.25
2022-08-26T19:52:14.720Z,65.82
2022-08-26T19:54:43.290Z,66.46
2022-08-26T19:57:12.031Z,67.44
2022-08-26T19:59:41.799Z,64.52
2022-08-26T20:02:11.449Z,66.78
2022-08-26T20:04:44.327Z,66.47
2022-08-26T20:07:18.503Z,67.08
2022-08-26T20:09:49.279Z,66.61
2022-08-26T20:12:18.895Z,67.43
2022-08-26T20:14:47.682Z,66.73
2022-08-26T20:17:17.211Z,69.12
2022-08-26T20:20:04.747Z,68.30
2022-08-26T20:22:35.951Z,69.83
2022-08-26T20:25:06.409Z,69.94
2022-08-26T20:27:38.211Z,69.57
2022-08-26T20:30:10.524Z,69.85
2022-08-26T20:32:40.264Z,71.17
2022-08-26T20:35:15.900Z,71.68
2022-08-26T20:37:44.597Z,70.41
2022-08-26T20:40:15.517Z,69.81
2022-08-26T20:42:43.991Z,69.83
2022-08-26T20:45:12.737Z,69.50
2022-08-26T20:47:42.910Z,71.78
2022-08-26T20:50:11.455Z,71.65
2022-08-26T20:52:40.090Z,73.02
2022-08-26T20:55:09.570Z,72.09
2022-08-26T20:57:38.015Z,72.23
2022-08-26T21:00:08.223Z,72.03
2022-08-26T21:02:37.078Z,72.15
2022-08-26T21:05:07.361Z,72.35
2022-08-26T21:07:36.159Z,72.00
2022-08-26T21:10:05.566Z,71.68
2022-08-26T21:12:34.189Z,70.42
2022-08-26T21:15:04.623Z,70.32
2022-08-26T21:17:35.296Z,71.76
2022-08-26T21:20:04.990Z,72.10
2022-08-26T21:22:34.200Z,73.13
2022-08-26T21:25:02.958Z,73.53
2022-08-26T21:27:31.663Z,74.74
2022-08-26T21:30:00.110Z,75.32
2022-08-26T21:32:29.047Z,75.02
2022-08-26T21:35:00.072Z,75.25
2022-08-26T21:37:29.749Z,76.02
2022-08-26T21:40:02.139Z,76.70
2022-08-26T21:42:34.744Z,77.05
2022-08-26T21:45:04.505Z,77.18
2022-08-26T21:47:33.193Z,78.91
2022-08-26T21:50:01.963Z,79.09
2022-08-26T21:52:30.530Z,81.08
2022-08-26T21:55:04.512Z,81.69
2022-08-26T21:57:37.765Z,82.26
2022-08-26T22:00:10.274Z,83.00
2022-08-26T22:02:39.236Z,83.28
2022-08-26T22:05:08.497Z,85.47
2022-08-26T22:07:37.077Z,85.54
2022-08-26T22:10:06.683Z,85.99
2022-08-26T22:12:35.365Z,85.92
2022-08-26T22:15:05.026Z,87.19
2022-08-26T22:17:33.698Z,87.08
2022-08-26T22:20:02.578Z,89.14
2022-08-26T22:22:32.325Z,88.72
2022-08-26T22:25:00.855Z,88.61
2022-08-26T22:27:29.508Z,88.56
2022-08-26T22:29:58.142Z,88.38
2022-08-26T22:32:27.569Z,89.68
2022-08-26T22:34:56.945Z,89.95
2022-08-26T22:37:26.339Z,89.36
2022-08-26T22:39:54.986Z,90.33
2022-08-26T22:42:23.551Z,88.67
2022-08-26T22:44:52.166Z,85.67
2022-08-26T22:47:20.809Z,84.90
2022-08-26T22:49:49.435Z,83.27
2022-08-26T22:52:18.052Z,85.03
2022-08-26T22:54:46.701Z,85.84
2022-08-26T22:57:15.399Z,87.07
2022-08-26T22:59:44.649Z,88.39
2022-08-26T23:02:13.599Z,89.78
2022-08-26T23:04:43.034Z,91.06
2022-08-26T23:07:12.433Z,92.29
2022-08-26T23:09:41.032Z,93.10
2022-08-26T23:12:09.939Z,94.87
2022-08-26T23:14:40.583Z,94.11
2022-08-26T23:17:14.386Z,94.25
2022-08-26T23:19:42.273Z,94.56
2022-08-26T23:22:11.033Z,94.96
2022-08-26T23:24:40.552Z,95.12
2022-08-26T23:27:09.423Z,94.61
2022-08-26T23:29:37.941Z,95.40
2022-08-26T23:32:06.772Z,94.75
2022-08-26T23:34:55.984Z,93.70
2022-08-26T23:37:37.211Z,93.66
2022-08-26T23:40:36.389Z,92.79
2022-08-26T23:43:11.546Z,92.33
2022-08-26T23:45:40.379Z,94.41
2022-08-26T23:48:08.298Z,92.41
2022-08-26T23:50:54.730Z,94.75
2022-08-26T23:53:23.629Z,94.33
2022-08-26T23:55:54.125Z,93.73
2022-08-26T23:58:23.221Z,93.83
